Time;durP1;ratioP1;P1;durP2;ratioP2;P2;SDS_P1;SDS_P2;PMS_P1;PMS_P2;Temp;Humidity;BMP_temperature;BMP_pressure;BME280_temperature;BME280_humidity;BME280_pressure;Samples;Min_cycle;Max_cycle;Signal;HPM_P1;HPM_P2
2021/05/15 00:01:41;;;;;;;0.88;0.70;;;11.70;99.90;;;;;;5055875;28;20041;-83
2021/05/15 00:04:07;;;;;;;2.22;0.60;;;11.60;99.90;;;;;;5037698;28;20029;-84
2021/05/15 00:06:32;;;;;;;4.20;0.68;;;11.50;99.90;;;;;;5037683;28;20029;-83
2021/05/15 00:08:58;;;;;;;1.70;0.57;;;11.60;99.90;;;;;;5055595;28;20021;-84
2021/05/15 00:11:24;;;;;;;1.90;0.68;;;11.60;99.90;;;;;;5055794;28;20025;-83
2021/05/15 00:13:50;;;;;;;3.47;0.50;;;11.60;99.90;;;;;;5055473;28;20021;-84
2021/05/15 00:16:16;;;;;;;0.50;0.40;;;11.50;99.90;;;;;;5055608;28;20032;-84
2021/05/15 00:18:42;;;;;;;0.88;0.52;;;11.40;99.90;;;;;;5037462;28;20077;-84
2021/05/15 00:21:08;;;;;;;2.85;0.75;;;11.50;99.90;;;;;;5037432;28;20591;-84
2021/05/15 00:23:34;;;;;;;1.33;0.55;;;11.40;99.90;;;;;;5055321;28;20021;-84
2021/05/15 00:26:00;;;;;;;1.08;0.60;;;11.10;99.90;;;;;;5037317;28;20043;-84
2021/05/15 00:28:27;;;;;;;1.23;0.60;;;11.10;99.90;;;;;;5037367;28;20495;-84
2021/05/15 00:30:53;;;;;;;1.98;0.75;;;11.20;99.90;;;;;;5037250;28;20114;-84
2021/05/15 00:33:19;;;;;;;3.30;0.50;;;11.00;99.90;;;;;;5037225;28;20053;-84
2021/05/15 00:35:44;;;;;;;0.88;0.50;;;11.00;99.90;;;;;;5037197;28;20495;-84
2021/05/15 00:38:11;;;;;;;0.57;0.45;;;10.80;99.90;;;;;;5037100;28;20083;-84
2021/05/15 00:40:37;;;;;;;1.35;0.70;;;10.60;99.90;;;;;;5037101;28;20028;-84
2021/05/15 00:43:04;;;;;;;2.20;0.73;;;10.90;99.90;;;;;;5037117;28;20400;-83
2021/05/15 00:45:29;;;;;;;2.97;0.63;;;10.90;99.90;;;;;;5054845;28;20044;-84
2021/05/15 00:47:55;;;;;;;1.45;0.57;;;10.90;99.90;;;;;;5035825;28;20032;-84
2021/05/15 00:50:21;;;;;;;2.30;0.68;;;11.00;99.90;;;;;;5017930;28;20046;-84
2021/05/15 00:52:47;;;;;;;0.90;0.63;;;11.00;99.90;;;;;;5013843;28;20024;-84
2021/05/15 00:55:15;;;;;;;3.63;0.60;;;11.00;99.90;;;;;;5015256;28;20025;-84
2021/05/15 00:57:41;;;;;;;2.00;0.70;;;11.10;99.90;;;;;;5015003;28;20022;-84
2021/05/15 01:00:10;;;;;;;1.23;0.52;;;10.90;99.90;;;;;;5013925;28;20022;-84
2021/05/15 01:02:36;;;;;;;4.20;0.60;;;10.90;99.90;;;;;;5015443;28;20576;-85
2021/05/15 01:05:03;;;;;;;3.05;0.50;;;11.00;99.90;;;;;;5013722;28;20029;-84
2021/05/15 01:07:29;;;;;;;1.48;0.60;;;10.90;99.90;;;;;;5014354;28;20032;-84
2021/05/15 01:09:55;;;;;;;2.05;0.40;;;10.70;99.90;;;;;;5013583;28;20029;-84
2021/05/15 01:12:21;;;;;;;0.68;0.47;;;10.90;99.90;;;;;;5014757;28;20018;-84
2021/05/15 01:14:48;;;;;;;4.38;0.80;;;10.80;99.90;;;;;;5015003;28;20026;-84
2021/05/15 01:17:14;;;;;;;0.55;0.30;;;11.00;99.90;;;;;;5014645;28;20033;-84
2021/05/15 01:19:40;;;;;;;1.38;0.75;;;10.80;99.90;;;;;;5013374;28;20030;-84
2021/05/15 01:22:12;;;;;;;1.25;0.50;;;10.90;99.90;;;;;;5013262;28;20112;-84
2021/05/15 01:24:40;;;;;;;2.78;0.70;;;10.90;99.90;;;;;;5014073;28;20030;-84
2021/05/15 01:27:10;;;;;;;0.77;0.50;;;10.90;99.90;;;;;;5013119;28;20029;-84
2021/05/15 01:29:36;;;;;;;3.50;0.63;;;10.70;99.90;;;;;;5013219;28;20457;-84
2021/05/15 01:32:03;;;;;;;1.75;0.65;;;10.60;99.90;;;;;;5014636;28;20018;-84
2021/05/15 01:34:29;;;;;;;0.93;0.50;;;10.50;99.90;;;;;;5014279;28;20033;-84
2021/05/15 01:36:54;;;;;;;1.10;0.68;;;10.40;99.90;;;;;;5013019;28;20087;-84
2021/05/15 01:39:20;;;;;;;1.02;0.50;;;10.30;99.90;;;;;;5012995;28;20037;-84
2021/05/15 01:41:46;;;;;;;2.25;0.65;;;10.40;99.90;;;;;;5012971;28;20034;-84
2021/05/15 01:44:12;;;;;;;2.53;0.60;;;10.50;99.90;;;;;;5014191;28;20396;-84
2021/05/15 01:46:38;;;;;;;0.93;0.55;;;10.50;99.90;;;;;;5012813;28;20033;-84
2021/05/15 01:49:05;;;;;;;1.33;0.55;;;10.60;99.90;;;;;;5012702;28;20049;-84
2021/05/15 01:51:31;;;;;;;3.60;0.77;;;10.40;99.90;;;;;;5014375;28;20072;-84
2021/05/15 01:53:58;;;;;;;1.00;0.70;;;10.30;99.90;;;;;;5013945;28;20037;-84
2021/05/15 01:56:26;;;;;;;2.05;0.73;;;10.40;99.90;;;;;;5012677;28;20032;-84
2021/05/15 01:58:52;;;;;;;1.20;0.57;;;10.50;99.90;;;;;;5012321;28;20022;-84
2021/05/15 02:01:23;;;;;;;1.17;0.60;;;10.30;99.90;;;;;;5012642;28;20022;-84
2021/05/15 02:03:49;;;;;;;3.05;0.90;;;10.30;99.90;;;;;;5012634;28;20078;-84
2021/05/15 02:06:15;;;;;;;1.58;0.50;;;10.50;99.90;;;;;;5014017;28;20412;-85
2021/05/15 02:08:42;;;;;;;4.03;0.65;;;10.70;99.90;;;;;;5012655;28;20592;-84
2021/05/15 02:11:08;;;;;;;1.63;0.70;;;10.60;99.90;;;;;;5013775;28;20022;-84
2021/05/15 02:13:34;;;;;;;1.70;0.70;;;10.40;99.90;;;;;;5013801;28;20097;-84
2021/05/15 02:16:01;;;;;;;1.38;0.70;;;10.30;99.90;;;;;;5012464;28;20477;-84
2021/05/15 02:18:27;;;;;;;1.73;0.90;;;10.20;99.90;;;;;;5012434;28;20114;-84
2021/05/15 02:20:55;;;;;;;2.55;0.82;;;10.00;99.90;;;;;;5014230;28;20026;-84
2021/05/15 02:23:23;;;;;;;2.03;0.70;;;10.00;99.90;;;;;;5013637;28;20026;-84
2021/05/15 02:25:49;;;;;;;1.35;0.70;;;10.10;99.90;;;;;;5012537;28;20026;-84
2021/05/15 02:28:16;;;;;;;1.10;0.60;;;10.10;99.90;;;;;;5012392;28;20466;-84
2021/05/15 02:30:43;;;;;;;2.15;0.70;;;10.20;99.90;;;;;;5012298;28;20366;-84
2021/05/15 02:33:10;;;;;;;2.88;0.50;;;10.10;99.90;;;;;;5012210;28;20072;-84
2021/05/15 02:35:36;;;;;;;1.77;0.70;;;10.00;99.90;;;;;;5013521;28;20465;-84
2021/05/15 02:38:04;;;;;;;2.67;0.90;;;10.20;99.90;;;;;;5013526;28;20041;-84
2021/05/15 02:40:29;;;;;;;1.75;0.80;;;10.00;99.90;;;;;;5012249;28;20057;-84
2021/05/15 02:42:55;;;;;;;1.73;0.60;;;9.90;99.90;;;;;;5012195;28;20120;-84
2021/05/15 02:45:23;;;;;;;2.38;0.77;;;10.00;99.90;;;;;;5013353;28;20022;-84
2021/05/15 02:47:50;;;;;;;3.50;0.57;;;10.30;99.90;;;;;;5012096;28;20018;-84
2021/05/15 02:50:17;;;;;;;2.10;0.60;;;10.50;99.90;;;;;;5043075;28;20562;-85
2021/05/15 02:52:43;;;;;;;1.52;0.85;;;10.20;99.90;;;;;;5035255;28;20052;-84
2021/05/15 02:55:15;;;;;;;3.10;0.70;;;10.10;99.90;;;;;;5035168;28;20032;-84
2021/05/15 02:57:42;;;;;;;1.10;0.65;;;10.30;99.90;;;;;;5053220;28;20025;-84
2021/05/15 03:00:10;;;;;;;1.67;0.77;;;10.20;99.90;;;;;;5052909;28;20056;-84
2021/05/15 03:02:36;;;;;;;2.10;0.75;;;10.00;99.90;;;;;;5052893;28;20029;-84
2021/05/15 03:05:08;;;;;;;1.50;0.90;;;9.90;99.90;;;;;;5052885;28;20108;-84
2021/05/15 03:07:33;;;;;;;8.05;0.90;;;10.00;99.90;;;;;;5035157;28;20454;-84
2021/05/15 03:09:59;;;;;;;2.03;0.77;;;9.90;99.90;;;;;;5034905;28;20052;-84
2021/05/15 03:12:25;;;;;;;1.35;0.80;;;9.80;99.90;;;;;;5037793;28;20108;-84
2021/05/15 03:14:51;;;;;;;3.95;1.30;;;9.80;99.90;;;;;;5038718;28;20028;-84
2021/05/15 03:17:17;;;;;;;4.32;1.10;;;9.70;99.90;;;;;;5038721;28;20028;-85
2021/05/15 03:19:42;;;;;;;3.10;0.70;;;9.60;99.90;;;;;;5038602;28;20032;-84
2021/05/15 03:22:08;;;;;;;1.42;0.80;;;9.80;99.90;;;;;;5056486;28;20033;-84
2021/05/15 03:24:34;;;;;;;1.80;0.80;;;10.00;99.90;;;;;;5056480;28;20021;-84
2021/05/15 03:27:00;;;;;;;1.48;0.90;;;9.90;99.90;;;;;;5056468;28;20094;-84
2021/05/15 03:29:26;;;;;;;1.88;0.90;;;10.30;99.90;;;;;;5038552;28;20017;-84
2021/05/15 03:31:52;;;;;;;0.98;0.73;;;10.40;99.90;;;;;;5038449;28;20452;-84
2021/05/15 03:34:18;;;;;;;1.10;0.68;;;10.50;99.90;;;;;;5056253;28;20049;-84
2021/05/15 03:36:44;;;;;;;1.10;0.60;;;10.50;99.90;;;;;;5038385;28;20487;-84
2021/05/15 03:39:17;;;;;;;4.45;0.90;;;10.40;99.90;;;;;;5038347;28;20029;-84
2021/05/15 03:41:43;;;;;;;1.80;0.63;;;10.10;99.90;;;;;;5039092;28;20029;-84
2021/05/15 03:44:08;;;;;;;1.45;0.60;;;10.00;99.90;;;;;;5038208;28;20031;-84
2021/05/15 03:46:34;;;;;;;1.17;0.57;;;10.10;99.90;;;;;;5038048;28;20025;-84
2021/05/15 03:49:00;;;;;;;1.08;0.70;;;10.40;99.90;;;;;;5055819;28;20117;-84
2021/05/15 03:51:25;;;;;;;1.80;0.60;;;10.50;99.90;;;;;;5038020;28;20036;-84
2021/05/15 03:53:51;;;;;;;1.35;0.60;;;10.50;99.90;;;;;;5056152;28;20056;-84
2021/05/15 03:56:17;;;;;;;1.58;0.60;;;10.60;99.90;;;;;;5037994;28;20120;-84
2021/05/15 03:58:42;;;;;;;3.22;0.70;;;10.60;99.90;;;;;;5037990;28;20083;-84
2021/05/15 04:01:08;;;;;;;0.85;0.55;;;10.50;99.90;;;;;;5056021;28;20025;-84
2021/05/15 04:03:34;;;;;;;0.90;0.40;;;10.50;99.90;;;;;;5037905;28;20499;-84
2021/05/15 04:05:59;;;;;;;1.48;0.55;;;10.70;99.90;;;;;;5055558;28;20362;-84
2021/05/15 04:08:25;;;;;;;2.08;0.60;;;10.50;99.90;;;;;;5055646;28;20138;-84
2021/05/15 04:10:51;;;;;;;1.35;0.77;;;10.20;99.90;;;;;;5037641;28;20496;-84
2021/05/15 04:14:01;;;;;;;2.08;0.70;;;10.00;99.90;;;;;;5037661;28;20491;-84
2021/05/15 04:16:19;;;;;;;2.28;0.85;;;9.90;99.90;;;;;;5047112;28;20445;-84
2021/05/15 04:18:44;;;;;;;1.83;1.02;;;9.90;99.90;;;;;;5037585;28;20029;-84
2021/05/15 04:21:10;;;;;;;7.18;0.90;;;10.00;99.90;;;;;;5055659;28;20078;-84
2021/05/15 04:23:36;;;;;;;4.47;1.40;;;10.10;99.90;;;;;;5037185;28;20059;-84
2021/05/15 04:26:02;;;;;;;6.00;0.90;;;10.20;99.90;;;;;;5037347;28;20025;-84
2021/05/15 04:28:30;;;;;;;1.83;0.70;;;10.40;99.90;;;;;;5037376;28;20507;-84
2021/05/15 04:30:56;;;;;;;1.50;0.80;;;10.50;99.90;;;;;;5037270;28;20423;-84
2021/05/15 04:33:23;;;;;;;1.83;0.85;;;10.50;99.90;;;;;;5055184;28;20051;-84
2021/05/15 04:35:53;;;;;;;2.13;0.90;;;10.50;99.90;;;;;;5037241;28;20028;-84
2021/05/15 04:38:19;;;;;;;1.27;0.70;;;10.40;99.90;;;;;;5037198;28;20029;-84
2021/05/15 04:40:45;;;;;;;1.80;0.77;;;10.30;99.90;;;;;;5055538;28;20123;-83
2021/05/15 04:43:13;;;;;;;5.72;0.90;;;10.20;99.90;;;;;;5037147;28;20487;-84
2021/05/15 04:45:39;;;;;;;1.80;0.80;;;10.20;99.90;;;;;;5054766;28;20016;-84
2021/05/15 04:48:05;;;;;;;2.17;0.65;;;10.30;99.90;;;;;;5055489;28;20021;-83
2021/05/15 04:50:31;;;;;;;2.00;0.70;;;10.40;99.90;;;;;;5036825;28;20546;-83
2021/05/15 04:52:57;;;;;;;4.00;0.70;;;10.20;99.90;;;;;;5054760;28;20052;-84
2021/05/15 04:55:23;;;;;;;2.40;0.90;;;10.20;99.90;;;;;;5036838;28;20025;-84
2021/05/15 04:57:48;;;;;;;2.25;1.05;;;10.50;99.90;;;;;;5036930;28;20083;-84
2021/05/15 05:00:15;;;;;;;2.55;0.85;;;10.70;99.90;;;;;;5054975;28;20465;-84
2021/05/15 05:02:40;;;;;;;1.63;0.82;;;10.80;99.90;;;;;;5036609;28;20025;-84
2021/05/15 05:05:08;;;;;;;2.42;0.65;;;10.90;99.90;;;;;;5036740;28;20028;-84
2021/05/15 05:07:34;;;;;;;1.45;0.68;;;10.80;99.90;;;;;;5054317;28;20025;-84
2021/05/15 05:09:59;;;;;;;2.13;0.75;;;10.80;99.90;;;;;;5036578;28;20036;-84
2021/05/15 05:12:25;;;;;;;1.45;0.60;;;10.80;99.90;;;;;;5036552;28;20028;-84
2021/05/15 05:14:51;;;;;;;1.33;0.73;;;10.90;99.90;;;;;;5036501;28;20445;-84
2021/05/15 05:17:17;;;;;;;1.42;0.70;;;10.90;99.90;;;;;;5036717;28;20036;-84
2021/05/15 05:19:42;;;;;;;1.73;0.68;;;10.90;99.90;;;;;;5036283;28;20021;-85
2021/05/15 05:22:08;;;;;;;3.25;0.75;;;11.10;99.90;;;;;;5036256;28;20071;-84
2021/05/15 05:24:34;;;;;;;3.13;0.90;;;11.20;99.90;;;;;;5054290;28;20025;-84
2021/05/15 05:27:01;;;;;;;1.48;0.80;;;11.00;99.90;;;;;;5036205;28;20020;-84
2021/05/15 05:29:28;;;;;;;2.35;0.90;;;10.90;99.90;;;;;;5054203;28;20480;-84
2021/05/15 05:31:54;;;;;;;1.33;0.80;;;10.90;99.90;;;;;;5036266;28;20503;-84
2021/05/15 05:34:20;;;;;;;3.25;0.82;;;10.80;99.90;;;;;;5035550;28;20047;-84
2021/05/15 05:36:47;;;;;;;2.05;0.90;;;10.70;99.90;;;;;;5053914;28;20497;-84
2021/05/15 05:39:20;;;;;;;1.50;0.95;;;10.60;99.90;;;;;;5036032;28;20060;-84
2021/05/15 05:41:47;;;;;;;2.97;1.00;;;10.70;99.90;;;;;;5053902;28;20029;-84
2021/05/15 05:44:14;;;;;;;3.00;1.00;;;10.70;99.90;;;;;;5035929;28;20071;-84
2021/05/15 05:46:40;;;;;;;1.05;0.75;;;10.70;99.90;;;;;;5035811;28;20124;-83
2021/05/15 05:49:06;;;;;;;1.95;1.13;;;10.50;99.90;;;;;;5035684;28;20518;-84
2021/05/15 05:51:33;;;;;;;2.15;0.90;;;10.50;99.90;;;;;;5035866;28;20107;-84
2021/05/15 05:53:59;;;;;;;1.25;0.80;;;10.80;99.90;;;;;;5035811;28;20082;-84
2021/05/15 05:56:25;;;;;;;1.35;0.95;;;10.90;99.90;;;;;;5053583;28;20100;-84
2021/05/15 05:58:50;;;;;;;1.23;0.70;;;11.00;99.90;;;;;;5053589;28;20400;-83
2021/05/15 06:01:16;;;;;;;1.92;1.00;;;11.20;99.90;;;;;;5035690;28;20033;-84
2021/05/15 06:03:43;;;;;;;1.48;0.85;;;11.10;99.90;;;;;;5035693;28;20515;-83
2021/05/15 06:06:10;;;;;;;1.25;0.70;;;11.20;99.90;;;;;;5035676;28;20029;-83
2021/05/15 06:08:35;;;;;;;2.20;0.85;;;11.50;99.90;;;;;;5035546;28;20484;-84
2021/05/15 06:11:01;;;;;;;2.40;0.90;;;11.60;99.90;;;;;;5053711;28;20092;-84
2021/05/15 06:13:27;;;;;;;1.42;0.82;;;11.70;99.90;;;;;;5035555;28;20028;-83
2021/05/15 06:15:53;;;;;;;3.75;0.80;;;11.80;99.90;;;;;;5035626;28;20025;-84
2021/05/15 06:18:20;;;;;;;3.72;0.80;;;11.70;99.90;;;;;;5035492;28;20135;-82
2021/05/15 06:20:46;;;;;;;2.97;0.73;;;11.80;99.90;;;;;;5035423;28;20116;-82
2021/05/15 06:23:12;;;;;;;1.90;0.70;;;11.70;99.90;;;;;;5053318;28;20075;-84
2021/05/15 06:25:38;;;;;;;2.03;0.77;;;11.60;99.90;;;;;;5035343;28;20480;-84
2021/05/15 06:28:04;;;;;;;3.85;0.80;;;11.50;99.90;;;;;;5035315;28;20048;-83
2021/05/15 06:30:29;;;;;;;2.25;0.90;;;11.40;99.90;;;;;;5035406;28;20029;-83
2021/05/15 06:32:55;;;;;;;1.58;0.80;;;11.20;99.90;;;;;;5035384;28;20392;-83
2021/05/15 06:35:21;;;;;;;1.35;0.60;;;11.30;99.90;;;;;;5053498;28;20021;-83
2021/05/15 06:37:47;;;;;;;1.35;0.85;;;11.30;99.90;;;;;;5035327;28;20545;-83
2021/05/15 06:40:12;;;;;;;1.60;0.90;;;11.10;99.90;;;;;;5053041;28;20017;-84
2021/05/15 06:42:39;;;;;;;2.50;1.08;;;11.10;99.90;;;;;;5053131;28;20062;-84
2021/05/15 06:45:07;;;;;;;1.02;0.65;;;11.30;99.90;;;;;;5036344;28;20037;-83
2021/05/15 06:47:33;;;;;;;4.50;0.95;;;11.30;99.90;;;;;;5056958;28;20388;-83
2021/05/15 06:49:59;;;;;;;4.25;1.05;;;11.40;99.90;;;;;;5039012;28;20037;-83
2021/05/15 06:52:25;;;;;;;0.77;0.55;;;11.50;99.90;;;;;;5057064;28;20094;-84
2021/05/15 06:54:50;;;;;;;1.65;0.77;;;11.60;99.90;;;;;;5056931;28;20064;-83
2021/05/15 06:57:17;;;;;;;5.15;0.95;;;11.70;99.90;;;;;;5039315;28;20473;-83
2021/05/15 06:59:42;;;;;;;2.20;0.80;;;11.80;99.90;;;;;;5039238;28;20119;-83
2021/05/15 07:02:08;;;;;;;1.80;0.80;;;11.80;99.90;;;;;;5040115;28;20171;-83
2021/05/15 07:04:34;;;;;;;1.17;0.68;;;11.80;99.90;;;;;;5038936;28;20404;-82
2021/05/15 07:07:00;;;;;;;3.03;0.82;;;11.90;99.90;;;;;;5038875;28;20025;-83
2021/05/15 07:09:25;;;;;;;2.50;0.90;;;11.90;99.90;;;;;;5057102;28;20021;-83
2021/05/15 07:11:51;;;;;;;2.47;0.73;;;11.80;99.90;;;;;;5039130;28;20384;-83
2021/05/15 07:14:18;;;;;;;2.85;1.33;;;11.50;99.90;;;;;;5039108;28;20076;-83
2021/05/15 07:16:44;;;;;;;2.40;1.00;;;11.50;99.90;;;;;;5041589;28;20027;-82
2021/05/15 07:19:10;;;;;;;7.80;1.10;;;11.90;99.90;;;;;;5041099;28;20112;-83
2021/05/15 07:21:36;;;;;;;4.72;1.00;;;12.00;99.90;;;;;;5039932;28;20025;-83
2021/05/15 07:24:03;;;;;;;1.75;0.70;;;12.10;99.90;;;;;;5039833;28;20033;-83
2021/05/15 07:26:28;;;;;;;1.30;0.73;;;12.20;99.90;;;;;;5057994;28;20021;-82
2021/05/15 07:28:54;;;;;;;3.13;0.70;;;12.20;99.90;;;;;;5039973;28;20071;-83
2021/05/15 07:31:20;;;;;;;1.55;0.98;;;12.20;99.90;;;;;;5039631;28;20140;-83
2021/05/15 07:33:46;;;;;;;4.30;1.50;;;12.20;99.90;;;;;;5039612;28;20028;-82
2021/05/15 07:36:12;;;;;;;2.03;0.73;;;12.30;99.90;;;;;;5038371;28;20423;-85
2021/05/15 07:38:38;;;;;;;2.85;1.52;;;12.10;99.90;;;;;;5038272;28;20021;-86
2021/05/15 07:41:05;;;;;;;4.63;1.10;;;11.90;99.90;;;;;;5038202;28;20033;-86
2021/05/15 07:43:30;;;;;;;3.88;0.90;;;11.90;99.90;;;;;;5038584;28;20115;-82
2021/05/15 07:45:58;;;;;;;3.58;0.90;;;11.90;99.90;;;;;;5038885;28;20121;-81
2021/05/15 07:48:58;;;;;;;4.22;1.30;;;12.00;99.90;;;;;;5038769;28;20021;-83
2021/05/15 07:51:21;;;;;;;4.05;1.50;;;12.10;99.90;;;;;;5053303;28;20033;-82
2021/05/15 07:53:53;;;;;;;1.92;0.70;;;12.20;99.90;;;;;;5040319;28;20024;-83
2021/05/15 07:56:19;;;;;;;9.00;3.55;;;12.40;99.90;;;;;;5038980;28;20116;-82
2021/05/15 07:58:45;;;;;;;3.42;1.00;;;12.50;99.90;;;;;;5038307;28;20028;-82
2021/05/15 08:01:11;;;;;;;1.77;0.60;;;12.50;99.90;;;;;;5056146;28;20029;-82
2021/05/15 08:03:37;;;;;;;3.33;0.77;;;12.40;99.90;;;;;;5039557;28;20028;-83
2021/05/15 08:06:03;;;;;;;3.75;1.08;;;12.50;99.90;;;;;;5039830;28;20029;-83
2021/05/15 08:08:29;;;;;;;3.03;0.70;;;12.50;99.90;;;;;;5039663;28;20021;-83
2021/05/15 08:10:54;;;;;;;5.03;1.75;;;12.30;99.90;;;;;;5057491;28;20013;-83
2021/05/15 08:13:20;;;;;;;3.15;0.77;;;12.20;99.90;;;;;;5039771;28;20067;-84
2021/05/15 08:15:46;;;;;;;4.20;0.80;;;12.20;99.90;;;;;;5059832;28;20044;-83
2021/05/15 08:18:12;;;;;;;3.15;0.90;;;12.30;99.90;;;;;;5039663;28;20065;-83
2021/05/15 08:20:39;;;;;;;2.47;0.70;;;12.50;99.90;;;;;;5056667;28;20021;-83
2021/05/15 08:23:05;;;;;;;5.60;1.05;;;12.40;99.90;;;;;;5058722;28;20471;-83
2021/05/15 08:25:31;;;;;;;5.10;1.95;;;12.40;99.90;;;;;;5059369;28;20500;-83
2021/05/15 08:27:59;;;;;;;8.38;2.90;;;12.60;99.90;;;;;;5059818;28;20021;-83
2021/05/15 08:30:28;;;;;;;5.25;1.77;;;12.70;99.90;;;;;;5040261;28;20484;-83
2021/05/15 08:32:55;;;;;;;4.20;1.00;;;12.70;99.90;;;;;;5058785;28;20018;-84
2021/05/15 08:35:24;;;;;;;2.45;0.70;;;12.80;99.90;;;;;;5039465;28;20035;-83
2021/05/15 08:37:50;;;;;;;2.05;0.60;;;12.90;99.90;;;;;;5040737;28;20028;-84
2021/05/15 08:40:16;;;;;;;3.10;0.80;;;13.20;99.90;;;;;;5059386;28;20056;-84
2021/05/15 08:42:43;;;;;;;1.45;0.68;;;13.30;99.90;;;;;;5041121;28;20040;-85
2021/05/15 08:45:11;;;;;;;1.67;0.60;;;13.40;99.90;;;;;;5057818;28;20028;-85
2021/05/15 08:47:39;;;;;;;4.20;1.00;;;13.50;99.90;;;;;;5041129;28;20552;-84
2021/05/15 08:50:10;;;;;;;1.92;0.73;;;13.80;99.90;;;;;;5039755;28;20041;-84
2021/05/15 08:52:39;;;;;;;4.07;1.00;;;13.80;99.90;;;;;;5039600;28;20436;-83
2021/05/15 08:55:16;;;;;;;5.22;0.70;;;14.00;99.90;;;;;;5039758;28;20036;-85
2021/05/15 08:57:43;;;;;;;2.05;0.70;;;14.10;99.90;;;;;;5043183;28;20032;-84
2021/05/15 09:00:13;;;;;;;1.75;0.57;;;14.50;99.90;;;;;;5040408;28;20056;-84
2021/05/15 09:02:39;;;;;;;0.98;0.50;;;14.30;99.90;;;;;;5041442;28;20025;-83
2021/05/15 09:05:07;;;;;;;1.02;0.50;;;14.10;99.90;;;;;;5057203;28;20021;-83
2021/05/15 09:07:33;;;;;;;6.13;1.50;;;13.80;99.90;;;;;;5042381;28;20041;-82
2021/05/15 09:09:59;;;;;;;4.20;1.75;;;13.80;99.90;;;;;;5057550;28;20496;-82
2021/05/15 09:12:25;;;;;;;2.05;0.88;;;13.80;99.90;;;;;;5041622;28;20025;-83
2021/05/15 09:14:58;;;;;;;1.70;0.70;;;13.80;99.90;;;;;;5041618;28;20025;-84
2021/05/15 09:17:24;;;;;;;1.55;0.50;;;13.80;99.90;;;;;;5058197;28;20051;-82
2021/05/15 09:19:52;;;;;;;2.15;0.77;;;13.90;99.90;;;;;;5039248;28;20056;-83
2021/05/15 09:22:25;;;;;;;1.95;0.57;;;13.70;99.90;;;;;;5039164;28;20057;-84
2021/05/15 09:24:51;;;;;;;5.18;0.65;;;14.20;99.90;;;;;;5038231;28;20054;-83
2021/05/15 09:27:16;;;;;;;1.80;0.70;;;14.20;99.90;;;;;;5057633;28;20049;-83
2021/05/15 09:29:51;;;;;;;2.25;0.75;;;14.20;99.90;;;;;;5041858;28;20028;-84
2021/05/15 09:32:33;;;;;;;6.13;0.70;;;14.70;99.90;;;;;;5059615;28;20057;-84
2021/05/15 09:35:00;;;;;;;2.22;0.80;;;15.10;99.90;;;;;;5040611;28;20464;-84
2021/05/15 09:37:32;;;;;;;4.00;0.60;;;15.30;99.90;;;;;;5060208;28;20029;-83
2021/05/15 09:40:22;;;;;;;2.42;0.90;;;15.70;99.90;;;;;;5041577;28;20093;-84
2021/05/15 09:43:00;;;;;;;4.22;1.35;;;16.00;99.90;;;;;;5042800;28;20032;-84
2021/05/15 09:45:34;;;;;;;2.92;0.80;;;16.00;99.90;;;;;;5039624;28;20028;-84
2021/05/15 09:48:09;;;;;;;1.77;0.60;;;15.70;99.90;;;;;;5057227;28;20032;-82
2021/05/15 09:50:41;;;;;;;5.25;1.05;;;15.20;99.90;;;;;;5057570;28;20456;-83
2021/05/15 09:53:14;;;;;;;3.70;0.98;;;15.00;99.90;;;;;;5056962;28;20032;-82
2021/05/15 09:55:43;;;;;;;3.17;0.75;;;14.80;99.90;;;;;;5058327;28;20021;-82
2021/05/15 09:58:10;;;;;;;2.88;1.10;;;14.60;99.90;;;;;;5040637;28;20393;-82
2021/05/15 10:00:51;;;;;;;4.50;0.70;;;14.80;99.90;;;;;;5055487;28;20103;-84
2021/05/15 10:03:18;;;;;;;4.93;1.05;;;14.70;99.90;;;;;;5055845;28;20021;-83
2021/05/15 10:05:44;;;;;;;3.50;1.30;;;15.10;99.90;;;;;;5038260;28;20045;-82
2021/05/15 10:08:11;;;;;;;3.80;0.85;;;15.30;99.90;;;;;;5037412;28;20024;-81
2021/05/15 10:10:37;;;;;;;3.25;1.00;;;15.70;99.90;;;;;;5055624;28;20420;-83
2021/05/15 10:13:02;;;;;;;4.78;1.33;;;15.80;99.90;;;;;;5056257;28;20021;-83
2021/05/15 10:15:28;;;;;;;2.88;0.82;;;15.80;99.90;;;;;;5039988;28;20021;-83
2021/05/15 10:17:56;;;;;;;3.55;1.00;;;15.80;99.90;;;;;;5039850;28;20094;-82
2021/05/15 10:20:21;;;;;;;5.03;1.88;;;15.80;99.90;;;;;;5037973;28;20064;-84
2021/05/15 10:22:47;;;;;;;3.83;1.38;;;15.90;99.90;;;;;;5038605;28;20029;-83
2021/05/15 10:25:15;;;;;;;5.40;1.35;;;15.70;99.90;;;;;;5038433;28;20021;-83
2021/05/15 10:27:40;;;;;;;3.88;1.38;;;15.60;99.90;;;;;;5059988;28;20028;-84
2021/05/15 10:30:18;;;;;;;3.92;1.10;;;15.80;99.90;;;;;;5058170;28;20029;-84
2021/05/15 10:33:01;;;;;;;7.10;2.30;;;15.70;99.90;;;;;;5038500;28;20071;-84
2021/05/15 10:35:44;;;;;;;2.13;0.60;;;15.70;99.90;;;;;;5037639;28;20028;-82
2021/05/15 10:38:13;;;;;;;2.00;1.00;;;15.30;99.90;;;;;;5055498;28;20370;-83
2021/05/15 10:40:44;;;;;;;4.97;1.30;;;15.10;99.90;;;;;;5060473;28;20025;-84
2021/05/15 10:43:10;;;;;;;8.30;1.27;;;15.50;99.90;;;;;;5057687;28;20075;-83
2021/05/15 10:45:43;;;;;;;5.53;1.40;;;15.40;99.90;;;;;;5057917;28;20024;-82
2021/05/15 10:48:24;;;;;;;4.20;1.35;;;15.50;99.90;;;;;;5058328;28;20028;-83
2021/05/15 10:50:56;;;;;;;3.00;1.20;;;15.30;99.90;;;;;;5056663;28;20099;-84
2021/05/15 10:53:27;;;;;;;6.43;1.65;;;15.20;99.90;;;;;;5041201;28;20049;-83
2021/05/15 10:56:17;;;;;;;3.30;1.05;;;15.30;99.90;;;;;;5059881;28;20482;-84
2021/05/15 10:58:44;;;;;;;6.80;1.23;;;15.40;99.90;;;;;;5041543;28;20025;-83
2021/05/15 11:01:12;;;;;;;4.63;0.90;;;15.50;99.90;;;;;;5041289;28;20115;-84
2021/05/15 11:03:38;;;;;;;2.45;0.77;;;15.50;99.90;;;;;;5040769;28;20025;-84
2021/05/15 11:06:23;;;;;;;4.43;0.90;;;15.30;99.90;;;;;;5043407;28;20033;-84
2021/05/15 11:09:00;;;;;;;3.33;0.75;;;15.40;99.90;;;;;;5043078;28;20392;-84
2021/05/15 11:11:42;;;;;;;3.90;1.20;;;15.40;99.90;;;;;;5060866;28;20546;-84
2021/05/15 11:14:36;;;;;;;9.40;2.78;;;15.60;99.90;;;;;;5057565;28;20021;-84
2021/05/15 11:17:15;;;;;;;6.07;1.98;;;15.60;99.90;;;;;;5040760;28;20056;-84
2021/05/15 11:19:58;;;;;;;6.30;0.98;;;15.60;99.90;;;;;;5043314;28;20043;-84
2021/05/15 11:22:48;;;;;;;8.48;2.20;;;15.50;99.90;;;;;;5061175;28;20025;-84
2021/05/15 11:25:14;;;;;;;3.08;0.90;;;15.90;99.90;;;;;;5057924;28;20025;-84
2021/05/15 11:28:00;;;;;;;5.18;0.85;;;16.40;99.90;;;;;;5041345;28;20021;-84
2021/05/15 11:30:31;;;;;;;6.65;1.05;;;16.70;99.90;;;;;;5057445;28;20022;-85
2021/05/15 11:33:10;;;;;;;3.95;1.30;;;16.70;99.90;;;;;;5042357;28;20075;-85
2021/05/15 11:35:42;;;;;;;2.33;0.77;;;16.80;99.90;;;;;;5045369;28;20071;-85
2021/05/15 11:38:13;;;;;;;7.07;1.17;;;16.80;99.90;;;;;;5044006;28;20025;-84
2021/05/15 11:40:39;;;;;;;2.15;0.70;;;16.60;99.90;;;;;;5043036;28;20499;-84
2021/05/15 11:43:07;;;;;;;7.38;1.30;;;16.50;99.90;;;;;;5044097;28;20435;-85
2021/05/15 11:45:34;;;;;;;3.15;0.65;;;16.40;99.90;;;;;;5043340;28;20052;-84
2021/05/15 11:48:21;;;;;;;3.25;0.70;;;16.10;99.90;;;;;;5043312;28;20033;-85
2021/05/15 11:51:17;;;;;;;2.75;1.00;;;16.20;99.90;;;;;;5041981;28;20457;-85
2021/05/15 11:53:50;;;;;;;4.50;0.70;;;16.40;99.90;;;;;;5059390;28;20024;-85
2021/05/15 11:56:17;;;;;;;3.70;0.90;;;16.30;99.90;;;;;;5059947;28;20108;-85
2021/05/15 11:58:57;;;;;;;3.03;0.80;;;16.40;99.90;;;;;;5040821;28;20025;-85
2021/05/15 12:01:37;;;;;;;2.50;0.77;;;16.50;99.90;;;;;;5059221;28;20025;-85
2021/05/15 12:04:07;;;;;;;3.00;0.70;;;16.40;99.90;;;;;;5041613;28;20491;-85
2021/05/15 12:06:33;;;;;;;4.28;1.00;;;16.40;99.90;;;;;;5060083;28;20036;-85
2021/05/15 12:08:59;;;;;;;3.80;0.75;;;16.30;99.90;;;;;;5041114;28;20021;-85
2021/05/15 12:11:26;;;;;;;2.40;0.68;;;16.30;99.90;;;;;;5041038;28;20032;-85
2021/05/15 12:13:53;;;;;;;2.00;0.70;;;16.30;99.90;;;;;;5058482;28;20060;-84
2021/05/15 12:16:21;;;;;;;2.15;0.70;;;16.20;99.90;;;;;;5039598;28;20021;-84
2021/05/15 12:18:47;;;;;;;4.65;0.85;;;15.80;98.90;;;;;;5039105;28;20030;-83
2021/05/15 12:21:13;;;;;;;2.90;0.85;;;15.40;99.90;;;;;;5056603;28;20163;-84
2021/05/15 12:23:39;;;;;;;2.28;0.55;;;15.10;99.90;;;;;;5057158;28;20052;-84
2021/05/15 12:26:10;;;;;;;3.05;0.75;;;14.90;99.90;;;;;;5039851;28;20049;-85
2021/05/15 12:28:46;;;;;;;3.05;0.80;;;15.10;99.90;;;;;;5040704;28;20039;-85
2021/05/15 12:31:32;;;;;;;2.42;0.80;;;15.30;99.90;;;;;;5039770;28;20111;-83
2021/05/15 12:33:59;;;;;;;6.85;0.95;;;15.20;99.90;;;;;;5038004;28;20112;-84
2021/05/15 12:36:33;;;;;;;5.93;0.80;;;15.10;99.90;;;;;;5056854;28;20113;-85
2021/05/15 12:39:00;;;;;;;4.80;1.55;;;15.10;99.90;;;;;;5041276;28;20029;-84
2021/05/15 12:41:37;;;;;;;3.88;0.93;;;15.00;99.90;;;;;;5057240;28;20036;-85
2021/05/15 12:44:06;;;;;;;3.63;0.90;;;15.00;99.90;;;;;;5056844;28;20444;-84
2021/05/15 12:46:37;;;;;;;4.07;0.82;;;14.90;99.90;;;;;;5059421;28;20021;-85
2021/05/15 12:49:06;;;;;;;2.92;0.60;;;14.80;99.90;;;;;;5061832;28;20049;-84
2021/05/15 12:51:41;;;;;;;4.38;1.00;;;14.60;99.90;;;;;;5042864;28;20022;-85
2021/05/15 12:54:10;;;;;;;;;;;14.60;99.90;;;;;;5042560;28;20025;-83